sensor_id;sensor_type;location;lat;lon;timestamp;temperature;humidity
935;DHT22;454;53.254;10.400;2023-05-07T04:01:04;9.50;99.90
935;DHT22;454;53.254;10.400;2023-05-07T04:03:31;9.50;99.90
935;DHT22;454;53.254;10.400;2023-05-07T04:05:57;9.60;99.90
935;DHT22;454;53.254;10.400;2023-05-07T04:08:24;9.60;99.90
935;DHT22;454;53.254;10.400;2023-05-07T04:10:54;9.60;99.90
935;DHT22;454;53.254;10.400;2023-05-07T04:13:21;9.60;99.90
935;DHT22;454;53.254;10.400;2023-05-07T04:15:48;9.60;99.90
935;DHT22;454;53.254;10.400;2023-05-07T04:18:16;9.60;99.90
935;DHT22;454;53.254;10.400;2023-05-07T04:20:43;9.60;99.90
935;DHT22;454;53.254;10.400;2023-05-07T04:23:10;9.60;99.90
935;DHT22;454;53.254;10.400;2023-05-07T04:25:36;9.60;99.90
935;DHT22;454;53.254;10.400;2023-05-07T04:28:03;9.60;99.90
935;DHT22;454;53.254;10.400;2023-05-07T04:30:31;9.60;99.90
935;DHT22;454;53.254;10.400;2023-05-07T04:32:58;9.60;99.90
935;DHT22;454;53.254;10.400;2023-05-07T04:35:26;9.60;99.90
935;DHT22;454;53.254;10.400;2023-05-07T04:37:52;9.60;99.90
935;DHT22;454;53.254;10.400;2023-05-07T04:40:19;9.60;99.90
935;DHT22;454;53.254;10.400;2023-05-07T04:42:46;9.70;99.90
935;DHT22;454;53.254;10.400;2023-05-07T04:45:13;9.70;99.90
935;DHT22;454;53.254;10.400;2023-05-07T04:47:40;9.70;99.90
935;DHT22;454;53.254;10.400;2023-05-07T04:50:07;9.70;99.90
935;DHT22;454;53.254;10.400;2023-05-07T04:52:36;9.70;99.90
935;DHT22;454;53.254;10.400;2023-05-07T04:55:03;9.70;99.90
935;DHT22;454;53.254;10.400;2023-05-07T04:57:30;9.70;99.90
935;DHT22;454;53.254;10.400;2023-05-07T04:59:57;9.80;99.90
935;DHT22;454;53.254;10.400;2023-05-07T05:02:24;9.80;99.90
935;DHT22;454;53.254;10.400;2023-05-07T05:04:50;9.70;99.90
935;DHT22;454;53.254;10.400;2023-05-07T05:07:17;9.80;99.90
935;DHT22;454;53.254;10.400;2023-05-07T05:09:45;9.80;99.90
935;DHT22;454;53.254;10.400;2023-05-07T05:12:12;9.80;99.90
935;DHT22;454;53.254;10.400;2023-05-07T05:14:39;9.80;99.90
935;DHT22;454;53.254;10.400;2023-05-07T05:17:05;9.80;99.90
935;DHT22;454;53.254;10.400;2023-05-07T05:19:32;9.80;99.90
935;DHT22;454;53.254;10.400;2023-05-07T05:21:59;9.80;99.90
935;DHT22;454;53.254;10.400;2023-05-07T05:24:26;9.80;99.90
935;DHT22;454;53.254;10.400;2023-05-07T05:26:54;9.80;99.90
935;DHT22;454;53.254;10.400;2023-05-07T05:29:21;9.80;99.90
935;DHT22;454;53.254;10.400;2023-05-07T05:31:48;9.90;99.90
935;DHT22;454;53.254;10.400;2023-05-07T05:34:14;9.90;99.90
935;DHT22;454;53.254;10.400;2023-05-07T05:36:43;9.90;99.90
935;DHT22;454;53.254;10.400;2023-05-07T05:39:10;9.90;99.90
935;DHT22;454;53.254;10.400;2023-05-07T05:41:36;9.90;99.90
935;DHT22;454;53.254;10.400;2023-05-07T05:44:04;9.90;99.90
935;DHT22;454;53.254;10.400;2023-05-07T05:46:31;9.90;99.90
935;DHT22;454;53.254;10.400;2023-05-07T05:48:58;9.90;99.90
935;DHT22;454;53.254;10.400;2023-05-07T05:51:24;9.90;99.90
935;DHT22;454;53.254;10.400;2023-05-07T05:53:51;10.00;99.90
935;DHT22;454;53.254;10.400;2023-05-07T05:56:19;10.00;99.90
935;DHT22;454;53.254;10.400;2023-05-07T05:58:46;10.00;99.90
935;DHT22;454;53.254;10.400;2023-05-07T06:01:14;10.00;99.90
935;DHT22;454;53.254;10.400;2023-05-07T06:03:41;10.00;99.90
935;DHT22;454;53.254;10.400;2023-05-07T06:06:07;10.00;99.90
935;DHT22;454;53.254;10.400;2023-05-07T06:08:34;10.00;99.90
935;DHT22;454;53.254;10.400;2023-05-07T06:11:01;10.00;99.90
935;DHT22;454;53.254;10.400;2023-05-07T06:13:28;10.10;99.90
935;DHT22;454;53.254;10.400;2023-05-07T06:15:55;10.10;99.90
935;DHT22;454;53.254;10.400;2023-05-07T06:18:23;10.10;99.90
935;DHT22;454;53.254;10.400;2023-05-07T06:20:51;10.10;99.90
935;DHT22;454;53.254;10.400;2023-05-07T06:23:17;10.10;99.90
935;DHT22;454;53.254;10.400;2023-05-07T06:25:49;10.20;99.90
935;DHT22;454;53.254;10.400;2023-05-07T06:28:16;10.20;99.90
935;DHT22;454;53.254;10.400;2023-05-07T06:30:43;10.20;99.90
935;DHT22;454;53.254;10.400;2023-05-07T06:33:10;10.20;99.90
935;DHT22;454;53.254;10.400;2023-05-07T06:35:38;10.20;99.90
935;DHT22;454;53.254;10.400;2023-05-07T06:38:05;10.20;99.90
935;DHT22;454;53.254;10.400;2023-05-07T06:40:32;10.20;99.90
935;DHT22;454;53.254;10.400;2023-05-07T06:42:58;10.30;99.90
935;DHT22;454;53.254;10.400;2023-05-07T06:45:25;10.30;99.90
935;DHT22;454;53.254;10.400;2023-05-07T06:47:52;10.40;99.90
935;DHT22;454;53.254;10.400;2023-05-07T06:50:19;10.30;99.90
935;DHT22;454;53.254;10.400;2023-05-07T06:52:47;10.30;99.90
935;DHT22;454;53.254;10.400;2023-05-07T06:55:14;10.40;99.90
935;DHT22;454;53.254;10.400;2023-05-07T06:57:41;10.40;99.90
935;DHT22;454;53.254;10.400;2023-05-07T07:00:08;10.40;99.90
935;DHT22;454;53.254;10.400;2023-05-07T07:02:36;10.40;99.90
935;DHT22;454;53.254;10.400;2023-05-07T07:05:03;10.50;99.90
935;DHT22;454;53.254;10.400;2023-05-07T07:07:30;10.50;99.90
935;DHT22;454;53.254;10.400;2023-05-07T07:09:58;10.50;99.90
935;DHT22;454;53.254;10.400;2023-05-07T07:12:25;10.60;99.90
935;DHT22;454;53.254;10.400;2023-05-07T07:14:52;10.50;99.90
935;DHT22;454;53.254;10.400;2023-05-07T07:17:19;10.50;99.90
935;DHT22;454;53.254;10.400;2023-05-07T07:19:45;10.60;99.90
935;DHT22;454;53.254;10.400;2023-05-07T07:22:12;10.60;99.90
935;DHT22;454;53.254;10.400;2023-05-07T07:24:39;10.60;99.90
935;DHT22;454;53.254;10.400;2023-05-07T07:27:07;10.60;99.90
935;DHT22;454;53.254;10.400;2023-05-07T07:29:34;10.70;99.90
935;DHT22;454;53.254;10.400;2023-05-07T07:32:00;10.70;99.90
935;DHT22;454;53.254;10.400;2023-05-07T07:34:27;10.70;99.90
935;DHT22;454;53.254;10.400;2023-05-07T07:36:54;10.80;99.90
935;DHT22;454;53.254;10.400;2023-05-07T07:39:21;10.80;99.90
935;DHT22;454;53.254;10.400;2023-05-07T07:41:48;10.80;99.90
935;DHT22;454;53.254;10.400;2023-05-07T07:44:16;10.90;99.90
935;DHT22;454;53.254;10.400;2023-05-07T07:46:43;10.90;99.90
935;DHT22;454;53.254;10.400;2023-05-07T07:49:10;10.90;99.90
935;DHT22;454;53.254;10.400;2023-05-07T07:51:37;10.90;99.90
935;DHT22;454;53.254;10.400;2023-05-07T07:54:04;11.00;99.90
935;DHT22;454;53.254;10.400;2023-05-07T07:56:32;11.00;99.90
935;DHT22;454;53.254;10.400;2023-05-07T07:58:59;11.10;99.90
935;DHT22;454;53.254;10.400;2023-05-07T08:01:29;11.10;99.90
935;DHT22;454;53.254;10.400;2023-05-07T08:03:56;11.10;99.90
935;DHT22;454;53.254;10.400;2023-05-07T08:06:24;11.20;99.90
935;DHT22;454;53.254;10.400;2023-05-07T08:08:51;11.20;99.90
935;DHT22;454;53.254;10.400;2023-05-07T08:11:18;11.30;99.90
935;DHT22;454;53.254;10.400;2023-05-07T08:13:46;11.30;99.90
935;DHT22;454;53.254;10.400;2023-05-07T08:16:13;11.20;99.90
935;DHT22;454;53.254;10.400;2023-05-07T08:18:41;11.20;99.90
935;DHT22;454;53.254;10.400;2023-05-07T08:21:08;11.10;99.90
935;DHT22;454;53.254;10.400;2023-05-07T08:23:35;11.20;99.90
935;DHT22;454;53.254;10.400;2023-05-07T08:26:01;11.30;99.90
935;DHT22;454;53.254;10.400;2023-05-07T08:28:28;11.30;99.90
935;DHT22;454;53.254;10.400;2023-05-07T08:30:55;11.30;99.90
935;DHT22;454;53.254;10.400;2023-05-07T08:33:25;11.40;99.90
935;DHT22;454;53.254;10.400;2023-05-07T08:35:53;11.50;99.90
935;DHT22;454;53.254;10.400;2023-05-07T08:38:20;11.50;99.90
935;DHT22;454;53.254;10.400;2023-05-07T08:40:47;11.50;99.90
935;DHT22;454;53.254;10.400;2023-05-07T08:43:14;11.50;99.90
935;DHT22;454;53.254;10.400;2023-05-07T08:45:41;11.40;99.90
935;DHT22;454;53.254;10.400;2023-05-07T08:48:14;11.40;99.90
935;DHT22;454;53.254;10.400;2023-05-07T08:50:41;11.50;99.90
935;DHT22;454;53.254;10.400;2023-05-07T08:53:10;11.50;99.90
935;DHT22;454;53.254;10.400;2023-05-07T08:55:36;11.60;99.90
935;DHT22;454;53.254;10.400;2023-05-07T08:58:03;11.60;99.90
935;DHT22;454;53.254;10.400;2023-05-07T09:00:30;11.70;99.90
935;DHT22;454;53.254;10.400;2023-05-07T09:02:57;11.70;99.90
935;DHT22;454;53.254;10.400;2023-05-07T09:05:23;11.80;99.90
935;DHT22;454;53.254;10.400;2023-05-07T09:07:50;11.90;99.90
935;DHT22;454;53.254;10.400;2023-05-07T09:10:19;11.90;99.90
935;DHT22;454;53.254;10.400;2023-05-07T09:12:46;11.90;99.90
935;DHT22;454;53.254;10.400;2023-05-07T09:15:13;11.90;99.90
935;DHT22;454;53.254;10.400;2023-05-07T09:17:40;11.80;99.90
935;DHT22;454;53.254;10.400;2023-05-07T09:20:08;11.80;99.90
935;DHT22;454;53.254;10.400;2023-05-07T09:22:36;11.90;99.90
935;DHT22;454;53.254;10.400;2023-05-07T09:25:04;12.00;99.90
935;DHT22;454;53.254;10.400;2023-05-07T09:27:32;12.10;99.90
935;DHT22;454;53.254;10.400;2023-05-07T09:29:59;12.20;99.90
935;DHT22;454;53.254;10.400;2023-05-07T09:32:25;12.10;99.90
935;DHT22;454;53.254;10.400;2023-05-07T09:34:53;12.10;99.90
935;DHT22;454;53.254;10.400;2023-05-07T09:37:19;12.20;99.90
935;DHT22;454;53.254;10.400;2023-05-07T09:39:48;12.10;99.90
935;DHT22;454;53.254;10.400;2023-05-07T09:42:15;12.10;99.90
935;DHT22;454;53.254;10.400;2023-05-07T09:44:43;12.10;99.90
935;DHT22;454;53.254;10.400;2023-05-07T09:47:11;12.20;99.90
935;DHT22;454;53.254;10.400;2023-05-07T09:49:46;12.20;99.90
935;DHT22;454;53.254;10.400;2023-05-07T09:52:13;12.30;99.90
935;DHT22;454;53.254;10.400;2023-05-07T09:54:40;12.30;99.90
935;DHT22;454;53.254;10.400;2023-05-07T09:57:10;12.40;99.90
935;DHT22;454;53.254;10.400;2023-05-07T09:59:38;12.40;99.90
935;DHT22;454;53.254;10.400;2023-05-07T10:02:06;12.40;99.90
935;DHT22;454;53.254;10.400;2023-05-07T10:04:35;12.40;99.90
935;DHT22;454;53.254;10.400;2023-05-07T10:07:04;12.40;99.90
935;DHT22;454;53.254;10.400;2023-05-07T10:09:31;12.40;99.90
935;DHT22;454;53.254;10.400;2023-05-07T10:11:58;12.50;99.90
935;DHT22;454;53.254;10.400;2023-05-07T10:14:27;12.50;99.90
935;DHT22;454;53.254;10.400;2023-05-07T10:16:54;12.50;99.90
935;DHT22;454;53.254;10.400;2023-05-07T10:19:22;12.60;99.90
935;DHT22;454;53.254;10.400;2023-05-07T10:21:55;12.70;99.90
935;DHT22;454;53.254;10.400;2023-05-07T10:24:25;12.70;99.90
935;DHT22;454;53.254;10.400;2023-05-07T10:26:53;12.60;99.90
935;DHT22;454;53.254;10.400;2023-05-07T10:29:29;12.70;99.90
935;DHT22;454;53.254;10.400;2023-05-07T10:32:01;12.80;99.90
935;DHT22;454;53.254;10.400;2023-05-07T10:34:37;12.80;99.90
935;DHT22;454;53.254;10.400;2023-05-07T10:37:05;12.70;99.90
935;DHT22;454;53.254;10.400;2023-05-07T10:39:32;12.80;99.90
935;DHT22;454;53.254;10.400;2023-05-07T10:42:08;12.80;99.90
935;DHT22;454;53.254;10.400;2023-05-07T10:44:35;12.90;99.90
935;DHT22;454;53.254;10.400;2023-05-07T10:47:10;13.00;99.90
935;DHT22;454;53.254;10.400;2023-05-07T10:52:43;13.10;99.90
935;DHT22;454;53.254;10.400;2023-05-07T10:55:20;13.00;99.90
935;DHT22;454;53.254;10.400;2023-05-07T10:57:47;12.90;99.90
935;DHT22;454;53.254;10.400;2023-05-07T11:00:41;12.90;99.90
935;DHT22;454;53.254;10.400;2023-05-07T11:03:08;13.00;99.90
935;DHT22;454;53.254;10.400;2023-05-07T11:05:38;13.10;99.90
935;DHT22;454;53.254;10.400;2023-05-07T11:08:05;13.20;99.90
935;DHT22;454;53.254;10.400;2023-05-07T11:10:51;13.20;99.90
935;DHT22;454;53.254;10.400;2023-05-07T11:13:19;13.20;99.90
935;DHT22;454;53.254;10.400;2023-05-07T11:16:16;13.30;99.90
935;DHT22;454;53.254;10.400;2023-05-07T11:18:48;13.40;99.90
935;DHT22;454;53.254;10.400;2023-05-07T11:21:31;13.50;99.90
935;DHT22;454;53.254;10.400;2023-05-07T11:23:59;13.70;99.90
935;DHT22;454;53.254;10.400;2023-05-07T11:26:30;13.80;99.90
935;DHT22;454;53.254;10.400;2023-05-07T11:28:57;13.90;99.90
935;DHT22;454;53.254;10.400;2023-05-07T11:31:28;13.90;99.90
935;DHT22;454;53.254;10.400;2023-05-07T11:33:55;14.00;99.90
935;DHT22;454;53.254;10.400;2023-05-07T11:36:23;14.20;99.90
935;DHT22;454;53.254;10.400;2023-05-07T11:38:50;14.20;99.90
935;DHT22;454;53.254;10.400;2023-05-07T11:41:17;14.20;99.90
935;DHT22;454;53.254;10.400;2023-05-07T11:43:58;14.40;99.90
935;DHT22;454;53.254;10.400;2023-05-07T11:46:27;14.50;99.90
935;DHT22;454;53.254;10.400;2023-05-07T11:48:55;14.60;99.90
935;DHT22;454;53.254;10.400;2023-05-07T11:51:23;14.70;99.90
935;DHT22;454;53.254;10.400;2023-05-07T11:53:51;14.60;99.90
935;DHT22;454;53.254;10.400;2023-05-07T11:56:18;14.60;99.90
935;DHT22;454;53.254;10.400;2023-05-07T11:58:46;14.70;99.90
935;DHT22;454;53.254;10.400;2023-05-07T12:01:14;14.80;99.90
935;DHT22;454;53.254;10.400;2023-05-07T12:03:43;15.00;99.90
935;DHT22;454;53.254;10.400;2023-05-07T12:06:11;14.90;99.90
935;DHT22;454;53.254;10.400;2023-05-07T12:08:38;14.90;99.90
935;DHT22;454;53.254;10.400;2023-05-07T12:11:08;14.90;99.90
935;DHT22;454;53.254;10.400;2023-05-07T12:13:35;14.80;99.90
935;DHT22;454;53.254;10.400;2023-05-07T12:16:02;14.80;99.90
935;DHT22;454;53.254;10.400;2023-05-07T12:18:30;14.80;99.90
935;DHT22;454;53.254;10.400;2023-05-07T12:20:59;14.90;99.90
935;DHT22;454;53.254;10.400;2023-05-07T12:23:26;14.90;99.90
935;DHT22;454;53.254;10.400;2023-05-07T12:25:53;14.70;99.90
935;DHT22;454;53.254;10.400;2023-05-07T12:28:19;14.70;99.90
935;DHT22;454;53.254;10.400;2023-05-07T12:30:47;14.70;99.90
935;DHT22;454;53.254;10.400;2023-05-07T12:33:16;14.80;99.90
935;DHT22;454;53.254;10.400;2023-05-07T12:35:43;14.90;99.90
935;DHT22;454;53.254;10.400;2023-05-07T12:38:13;14.90;99.90
935;DHT22;454;53.254;10.400;2023-05-07T12:40:41;15.10;99.90
935;DHT22;454;53.254;10.400;2023-05-07T12:43:08;15.30;99.90
935;DHT22;454;53.254;10.400;2023-05-07T12:45:41;15.50;99.90
935;DHT22;454;53.254;10.400;2023-05-07T12:48:10;15.50;99.90
935;DHT22;454;53.254;10.400;2023-05-07T12:50:36;15.30;99.90
935;DHT22;454;53.254;10.400;2023-05-07T12:53:03;15.50;99.90
935;DHT22;454;53.254;10.400;2023-05-07T12:55:32;15.70;99.90
935;DHT22;454;53.254;10.400;2023-05-07T12:58:06;15.80;99.90
935;DHT22;454;53.254;10.400;2023-05-07T13:00:35;16.00;99.90
935;DHT22;454;53.254;10.400;2023-05-07T13:03:01;16.20;99.90
935;DHT22;454;53.254;10.400;2023-05-07T13:05:28;16.30;99.90
935;DHT22;454;53.254;10.400;2023-05-07T13:07:56;16.40;99.90
935;DHT22;454;53.254;10.400;2023-05-07T13:10:23;16.60;99.90
935;DHT22;454;53.254;10.400;2023-05-07T13:12:51;16.50;99.90
935;DHT22;454;53.254;10.400;2023-05-07T13:15:18;16.50;99.90
935;DHT22;454;53.254;10.400;2023-05-07T13:17:44;16.70;99.90
935;DHT22;454;53.254;10.400;2023-05-07T13:20:11;16.90;99.90
935;DHT22;454;53.254;10.400;2023-05-07T13:22:39;16.80;99.90
935;DHT22;454;53.254;10.400;2023-05-07T13:25:06;16.90;99.90
935;DHT22;454;53.254;10.400;2023-05-07T13:27:33;17.00;99.90
935;DHT22;454;53.254;10.400;2023-05-07T13:30:04;17.10;99.90
935;DHT22;454;53.254;10.400;2023-05-07T13:32:31;17.10;99.90
935;DHT22;454;53.254;10.400;2023-05-07T13:34:58;17.20;99.90
935;DHT22;454;53.254;10.400;2023-05-07T13:37:24;17.20;99.90
935;DHT22;454;53.254;10.400;2023-05-07T13:39:51;17.10;99.90
935;DHT22;454;53.254;10.400;2023-05-07T13:42:18;17.10;99.90
935;DHT22;454;53.254;10.400;2023-05-07T13:44:44;17.20;99.90
935;DHT22;454;53.254;10.400;2023-05-07T13:47:13;17.20;99.90
935;DHT22;454;53.254;10.400;2023-05-07T13:49:39;17.20;99.90
935;DHT22;454;53.254;10.400;2023-05-07T13:52:06;17.30;99.90
935;DHT22;454;53.254;10.400;2023-05-07T13:54:33;17.20;99.90
935;DHT22;454;53.254;10.400;2023-05-07T13:56:59;17.10;99.90
935;DHT22;454;53.254;10.400;2023-05-07T13:59:27;17.10;99.90
935;DHT22;454;53.254;10.400;2023-05-07T14:01:53;17.30;99.90
935;DHT22;454;53.254;10.400;2023-05-07T14:04:22;17.30;99.90
935;DHT22;454;53.254;10.400;2023-05-07T14:06:49;17.20;99.90
935;DHT22;454;53.254;10.400;2023-05-07T14:09:15;17.10;99.90
935;DHT22;454;53.254;10.400;2023-05-07T14:11:42;17.00;99.90
935;DHT22;454;53.254;10.400;2023-05-07T14:14:09;17.00;99.90
935;DHT22;454;53.254;10.400;2023-05-07T14:16:36;17.00;99.90
935;DHT22;454;53.254;10.400;2023-05-07T14:19:03;16.90;99.90
935;DHT22;454;53.254;10.400;2023-05-07T14:21:31;17.00;99.90
935;DHT22;454;53.254;10.400;2023-05-07T14:23:58;17.00;99.90
935;DHT22;454;53.254;10.400;2023-05-07T14:26:25;17.00;99.90
935;DHT22;454;53.254;10.400;2023-05-07T14:28:53;17.10;99.90
935;DHT22;454;53.254;10.400;2023-05-07T14:31:20;17.20;99.90
935;DHT22;454;53.254;10.400;2023-05-07T14:33:47;17.30;99.90
935;DHT22;454;53.254;10.400;2023-05-07T14:36:15;17.50;99.90
935;DHT22;454;53.254;10.400;2023-05-07T14:38:43;17.60;99.90
935;DHT22;454;53.254;10.400;2023-05-07T14:41:10;17.70;99.90
935;DHT22;454;53.254;10.400;2023-05-07T14:43:36;17.80;99.90
935;DHT22;454;53.254;10.400;2023-05-07T14:46:03;17.80;99.90
935;DHT22;454;53.254;10.400;2023-05-07T14:48:30;17.90;99.90
935;DHT22;454;53.254;10.400;2023-05-07T14:50:57;18.00;99.90
935;DHT22;454;53.254;10.400;2023-05-07T14:53:23;18.00;99.90
935;DHT22;454;53.254;10.400;2023-05-07T14:55:51;18.00;99.90
935;DHT22;454;53.254;10.400;2023-05-07T14:58:18;18.00;99.90
935;DHT22;454;53.254;10.400;2023-05-07T15:00:45;18.00;99.90
935;DHT22;454;53.254;10.400;2023-05-07T15:03:12;18.00;99.90
935;DHT22;454;53.254;10.400;2023-05-07T15:05:38;18.10;99.90
935;DHT22;454;53.254;10.400;2023-05-07T15:08:05;18.10;99.90
935;DHT22;454;53.254;10.400;2023-05-07T15:10:35;18.20;99.90
935;DHT22;454;53.254;10.400;2023-05-07T15:13:07;17.90;99.90
935;DHT22;454;53.254;10.400;2023-05-07T15:15:34;17.70;99.90
935;DHT22;454;53.254;10.400;2023-05-07T15:18:01;17.70;99.90
935;DHT22;454;53.254;10.400;2023-05-07T15:20:27;17.80;99.90
935;DHT22;454;53.254;10.400;2023-05-07T15:22:54;17.70;99.90
935;DHT22;454;53.254;10.400;2023-05-07T15:25:21;17.70;99.90
935;DHT22;454;53.254;10.400;2023-05-07T15:27:48;17.80;99.90
935;DHT22;454;53.254;10.400;2023-05-07T15:30:18;17.90;99.90
935;DHT22;454;53.254;10.400;2023-05-07T15:32:46;17.90;99.90
935;DHT22;454;53.254;10.400;2023-05-07T15:35:12;17.80;99.90
935;DHT22;454;53.254;10.400;2023-05-07T15:37:39;17.80;99.90
935;DHT22;454;53.254;10.400;2023-05-07T15:40:07;17.80;99.90
935;DHT22;454;53.254;10.400;2023-05-07T15:42:34;17.90;99.90
935;DHT22;454;53.254;10.400;2023-05-07T15:45:01;17.80;99.90
935;DHT22;454;53.254;10.400;2023-05-07T15:47:32;17.80;99.90
935;DHT22;454;53.254;10.400;2023-05-07T15:49:59;17.70;99.90
935;DHT22;454;53.254;10.400;2023-05-07T15:52:26;17.60;99.90
935;DHT22;454;53.254;10.400;2023-05-07T15:54:53;17.50;99.90
935;DHT22;454;53.254;10.400;2023-05-07T15:57:20;17.40;99.90
935;DHT22;454;53.254;10.400;2023-05-07T15:59:47;17.40;99.90
935;DHT22;454;53.254;10.400;2023-05-07T16:02:14;17.30;99.90
935;DHT22;454;53.254;10.400;2023-05-07T16:04:42;17.30;99.90
935;DHT22;454;53.254;10.400;2023-05-07T16:07:08;17.20;99.90
935;DHT22;454;53.254;10.400;2023-05-07T16:09:35;17.20;99.90
935;DHT22;454;53.254;10.400;2023-05-07T16:12:02;17.10;99.90
935;DHT22;454;53.254;10.400;2023-05-07T16:14:29;17.10;99.90
935;DHT22;454;53.254;10.400;2023-05-07T16:16:56;17.10;99.90
935;DHT22;454;53.254;10.400;2023-05-07T16:19:22;17.00;99.90
935;DHT22;454;53.254;10.400;2023-05-07T16:21:50;17.00;99.90
935;DHT22;454;53.254;10.400;2023-05-07T16:24:17;17.00;99.90
935;DHT22;454;53.254;10.400;2023-05-07T16:26:44;17.00;99.90
935;DHT22;454;53.254;10.400;2023-05-07T16:29:10;16.90;99.90
935;DHT22;454;53.254;10.400;2023-05-07T16:31:37;17.00;99.90
935;DHT22;454;53.254;10.400;2023-05-07T16:34:04;17.10;99.90
935;DHT22;454;53.254;10.400;2023-05-07T16:36:30;17.20;99.90
935;DHT22;454;53.254;10.400;2023-05-07T16:38:58;17.20;99.90
935;DHT22;454;53.254;10.400;2023-05-07T16:41:25;17.10;99.90
935;DHT22;454;53.254;10.400;2023-05-07T16:43:52;16.90;99.90
935;DHT22;454;53.254;10.400;2023-05-07T16:46:18;16.80;99.90
935;DHT22;454;53.254;10.400;2023-05-07T16:48:45;16.60;99.90
935;DHT22;454;53.254;10.400;2023-05-07T16:51:12;16.60;99.90
935;DHT22;454;53.254;10.400;2023-05-07T16:53:38;16.50;99.90
935;DHT22;454;53.254;10.400;2023-05-07T16:56:07;16.40;99.90
935;DHT22;454;53.254;10.400;2023-05-07T16:58:34;16.40;99.90
935;DHT22;454;53.254;10.400;2023-05-07T17:01:00;16.40;99.90
935;DHT22;454;53.254;10.400;2023-05-07T17:03:28;16.30;99.90
935;DHT22;454;53.254;10.400;2023-05-07T17:05:56;16.30;99.90
935;DHT22;454;53.254;10.400;2023-05-07T17:08:23;16.20;99.90
935;DHT22;454;53.254;10.400;2023-05-07T17:10:50;16.20;99.90
935;DHT22;454;53.254;10.400;2023-05-07T17:13:18;16.10;99.90
935;DHT22;454;53.254;10.400;2023-05-07T17:15:44;16.10;99.90
935;DHT22;454;53.254;10.400;2023-05-07T17:18:12;16.10;99.90
935;DHT22;454;53.254;10.400;2023-05-07T17:20:38;16.10;99.90
935;DHT22;454;53.254;10.400;2023-05-07T17:23:05;16.00;99.90
935;DHT22;454;53.254;10.400;2023-05-07T17:25:33;16.00;99.90
935;DHT22;454;53.254;10.400;2023-05-07T17:27:59;15.90;99.90
935;DHT22;454;53.254;10.400;2023-05-07T17:30:27;15.90;99.90
935;DHT22;454;53.254;10.400;2023-05-07T17:32:54;15.80;99.90
935;DHT22;454;53.254;10.400;2023-05-07T17:35:21;15.80;99.90
935;DHT22;454;53.254;10.400;2023-05-07T17:37:48;15.70;99.90
935;DHT22;454;53.254;10.400;2023-05-07T17:40:17;15.70;99.90
935;DHT22;454;53.254;10.400;2023-05-07T17:42:44;15.60;99.90
935;DHT22;454;53.254;10.400;2023-05-07T17:45:11;15.60;99.90
935;DHT22;454;53.254;10.400;2023-05-07T17:47:39;15.50;99.90
935;DHT22;454;53.254;10.400;2023-05-07T17:50:07;15.50;99.90
935;DHT22;454;53.254;10.400;2023-05-07T17:52:35;15.50;99.90
935;DHT22;454;53.254;10.400;2023-05-07T17:55:02;15.40;99.90
935;DHT22;454;53.254;10.400;2023-05-07T17:57:29;15.40;99.90
935;DHT22;454;53.254;10.400;2023-05-07T17:59:56;15.40;99.90
935;DHT22;454;53.254;10.400;2023-05-07T18:02:23;15.30;99.90
935;DHT22;454;53.254;10.400;2023-05-07T18:04:51;15.30;99.90
935;DHT22;454;53.254;10.400;2023-05-07T18:07:17;15.20;99.90
935;DHT22;454;53.254;10.400;2023-05-07T18:09:44;15.20;99.90
935;DHT22;454;53.254;10.400;2023-05-07T18:12:11;15.20;99.90
935;DHT22;454;53.254;10.400;2023-05-07T18:14:38;15.10;99.90
935;DHT22;454;53.254;10.400;2023-05-07T18:17:04;15.10;99.90
935;DHT22;454;53.254;10.400;2023-05-07T18:19:31;15.00;99.90
935;DHT22;454;53.254;10.400;2023-05-07T18:21:59;15.00;99.90
935;DHT22;454;53.254;10.400;2023-05-07T18:24:25;14.90;99.90
935;DHT22;454;53.254;10.400;2023-05-07T18:26:52;14.90;99.90
935;DHT22;454;53.254;10.400;2023-05-07T18:29:19;14.90;99.90
935;DHT22;454;53.254;10.400;2023-05-07T18:31:46;14.80;99.90
935;DHT22;454;53.254;10.400;2023-05-07T18:34:13;14.80;99.90
935;DHT22;454;53.254;10.400;2023-05-07T18:36:39;14.70;99.90
935;DHT22;454;53.254;10.400;2023-05-07T18:39:07;14.70;99.90
935;DHT22;454;53.254;10.400;2023-05-07T18:41:34;14.60;99.90
935;DHT22;454;53.254;10.400;2023-05-07T18:44:01;14.60;99.90
935;DHT22;454;53.254;10.400;2023-05-07T18:46:28;14.50;99.90
935;DHT22;454;53.254;10.400;2023-05-07T18:48:55;14.40;99.90
935;DHT22;454;53.254;10.400;2023-05-07T18:51:21;14.40;99.90
935;DHT22;454;53.254;10.400;2023-05-07T18:53:48;14.40;99.90
935;DHT22;454;53.254;10.400;2023-05-07T18:56:16;14.30;99.90
935;DHT22;454;53.254;10.400;2023-05-07T18:58:43;14.20;99.90
935;DHT22;454;53.254;10.400;2023-05-07T19:01:10;14.10;99.90
935;DHT22;454;53.254;10.400;2023-05-07T19:03:37;14.10;99.90
935;DHT22;454;53.254;10.400;2023-05-07T19:06:03;14.00;99.90
935;DHT22;454;53.254;10.400;2023-05-07T19:08:31;14.00;99.90
935;DHT22;454;53.254;10.400;2023-05-07T19:10:57;13.90;99.90
935;DHT22;454;53.254;10.400;2023-05-07T19:13:25;13.90;99.90
935;DHT22;454;53.254;10.400;2023-05-07T19:15:52;13.80;99.90
935;DHT22;454;53.254;10.400;2023-05-07T19:18:19;13.70;99.90
935;DHT22;454;53.254;10.400;2023-05-07T19:20:46;13.70;99.90
935;DHT22;454;53.254;10.400;2023-05-07T19:23:13;13.60;99.90
935;DHT22;454;53.254;10.400;2023-05-07T19:25:40;13.50;99.90
935;DHT22;454;53.254;10.400;2023-05-07T19:28:07;13.50;99.90
935;DHT22;454;53.254;10.400;2023-05-07T19:30:38;13.40;99.90
935;DHT22;454;53.254;10.400;2023-05-07T19:33:05;13.40;99.90
935;DHT22;454;53.254;10.400;2023-05-07T19:35:32;13.30;99.90
935;DHT22;454;53.254;10.400;2023-05-07T19:37:59;13.30;99.90
935;DHT22;454;53.254;10.400;2023-05-07T19:40:26;13.20;99.90
935;DHT22;454;53.254;10.400;2023-05-07T19:42:54;13.20;99.90
935;DHT22;454;53.254;10.400;2023-05-07T19:45:21;13.20;99.90
935;DHT22;454;53.254;10.400;2023-05-07T19:47:49;13.10;99.90
935;DHT22;454;53.254;10.400;2023-05-07T19:50:17;13.00;99.90
935;DHT22;454;53.254;10.400;2023-05-07T19:52:43;13.00;99.90
935;DHT22;454;53.254;10.400;2023-05-07T19:55:11;12.90;99.90
935;DHT22;454;53.254;10.400;2023-05-07T19:57:38;12.90;99.90
935;DHT22;454;53.254;10.400;2023-05-07T20:00:06;12.80;99.90
935;DHT22;454;53.254;10.400;2023-05-07T20:02:33;12.80;99.90
935;DHT22;454;53.254;10.400;2023-05-07T20:05:01;12.70;99.90
935;DHT22;454;53.254;10.400;2023-05-07T20:07:28;12.70;99.90
935;DHT22;454;53.254;10.400;2023-05-07T20:09:55;12.60;99.90
935;DHT22;454;53.254;10.400;2023-05-07T20:12:21;12.60;99.90
935;DHT22;454;53.254;10.400;2023-05-07T20:14:48;12.60;99.90
935;DHT22;454;53.254;10.400;2023-05-07T20:17:15;12.50;99.90
935;DHT22;454;53.254;10.400;2023-05-07T20:19:42;12.50;99.90
935;DHT22;454;53.254;10.400;2023-05-07T20:22:10;12.50;99.90
935;DHT22;454;53.254;10.400;2023-05-07T20:24:37;12.40;99.90